createdAt,value
2023-01-20T00:01:09.761Z,21.55
2023-01-20T00:03:37.049Z,23.15
2023-01-20T00:06:04.009Z,24.55
2023-01-20T00:08:30.763Z,25.88
2023-01-20T00:10:57.385Z,32.22
2023-01-20T00:13:24.294Z,26.17
2023-01-20T00:15:50.892Z,25.13
2023-01-20T00:18:17.535Z,25.67
2023-01-20T00:20:44.231Z,30.52
2023-01-20T00:23:10.807Z,24.40
2023-01-20T00:25:37.732Z,22.38
2023-01-20T00:28:04.619Z,27.20
2023-01-20T00:30:31.727Z,26.17
2023-01-20T00:32:58.644Z,20.17
2023-01-20T00:35:25.338Z,25.70
2023-01-20T00:37:51.983Z,25.05
2023-01-20T00:40:18.642Z,25.92
2023-01-20T00:42:45.267Z,23.60
2023-01-20T00:45:12.317Z,22.92
2023-01-20T00:47:39.178Z,27.40
2023-01-20T00:50:06.119Z,25.27
2023-01-20T00:52:32.715Z,22.88
2023-01-20T00:54:59.428Z,24.23
2023-01-20T00:57:26.125Z,21.20
2023-01-20T00:59:52.795Z,19.23
2023-01-20T01:02:19.557Z,17.92
2023-01-20T01:04:50.402Z,20.98
2023-01-20T01:07:17.901Z,21.27
2023-01-20T01:09:44.720Z,23.00
2023-01-20T01:12:11.524Z,21.55
2023-01-20T01:14:38.354Z,22.05
2023-01-20T01:17:04.976Z,20.80
2023-01-20T01:19:31.650Z,22.92
2023-01-20T01:21:58.329Z,23.00
2023-01-20T01:24:24.990Z,24.30
2023-01-20T01:26:53.318Z,23.77
2023-01-20T01:29:20.329Z,28.90
2023-01-20T01:31:46.931Z,22.67
2023-01-20T01:34:15.582Z,19.67
2023-01-20T01:36:42.311Z,22.65
2023-01-20T01:39:08.952Z,22.20
2023-01-20T01:41:35.847Z,20.42
2023-01-20T01:44:09.711Z,22.40
2023-01-20T01:46:37.301Z,19.70
2023-01-20T01:49:09.048Z,22.10
2023-01-20T01:51:41.595Z,18.52
2023-01-20T01:54:19.867Z,20.65
2023-01-20T01:56:48.949Z,22.33
2023-01-20T01:59:17.054Z,23.42
2023-01-20T02:01:48.379Z,18.25
2023-01-20T02:04:17.417Z,20.63
2023-01-20T02:06:51.873Z,19.48
2023-01-20T02:09:19.053Z,17.83
2023-01-20T02:11:49.747Z,17.80
2023-01-20T02:14:22.916Z,19.33
2023-01-20T02:17:17.545Z,18.08
2023-01-20T02:20:22.005Z,19.42
2023-01-20T02:22:59.486Z,17.60
2023-01-20T02:25:44.946Z,18.70
2023-01-20T02:29:08.616Z,16.00
2023-01-20T02:31:59.718Z,18.40
2023-01-20T02:34:31.511Z,19.90
2023-01-20T02:37:04.419Z,19.30
2023-01-20T02:39:50.749Z,18.35
2023-01-20T02:42:38.012Z,21.23
2023-01-20T02:45:26.490Z,20.35
2023-01-20T02:48:03.439Z,22.50
2023-01-20T02:51:04.900Z,18.20
2023-01-20T02:53:43.563Z,17.85
2023-01-20T02:56:12.586Z,18.90
2023-01-20T02:58:50.689Z,19.65
2023-01-20T03:01:25.402Z,17.98
2023-01-20T03:03:57.408Z,15.93
2023-01-20T03:06:27.249Z,19.23
2023-01-20T03:08:58.808Z,18.30
2023-01-20T03:11:26.307Z,18.48
2023-01-20T03:14:02.114Z,19.25
2023-01-20T03:16:29.970Z,17.67
2023-01-20T03:18:56.621Z,16.05
2023-01-20T03:21:23.509Z,19.02
2023-01-20T03:23:58.281Z,20.63
2023-01-20T03:26:24.912Z,18.95
2023-01-20T03:28:52.462Z,16.83
2023-01-20T03:31:26.170Z,17.05
2023-01-20T03:33:58.605Z,19.17
2023-01-20T03:36:28.419Z,20.38
2023-01-20T03:38:56.432Z,21.55
2023-01-20T03:41:34.762Z,21.80
2023-01-20T03:44:13.337Z,19.63
2023-01-20T03:46:50.599Z,19.35
2023-01-20T03:49:27.413Z,16.10
2023-01-20T03:52:09.111Z,21.40
2023-01-20T03:54:47.547Z,18.67
2023-01-20T03:57:19.953Z,19.33
2023-01-20T03:59:50.036Z,17.95
2023-01-20T04:02:16.890Z,21.42
2023-01-20T04:04:45.141Z,21.50
2023-01-20T04:07:18.264Z,18.73
2023-01-20T04:09:50.694Z,21.80
2023-01-20T04:12:17.480Z,17.30
2023-01-20T04:14:44.151Z,19.80
2023-01-20T04:17:11.295Z,21.35
2023-01-20T04:19:37.880Z,19.95
2023-01-20T04:22:13.321Z,22.20
2023-01-20T04:24:54.354Z,20.38
2023-01-20T04:27:21.004Z,19.20
2023-01-20T04:29:47.631Z,20.08
2023-01-20T04:32:14.226Z,21.08
2023-01-20T04:34:40.822Z,16.45
2023-01-20T04:37:07.495Z,18.38
2023-01-20T04:39:34.128Z,19.83
2023-01-20T04:42:00.740Z,24.95
2023-01-20T04:44:27.324Z,23.55
2023-01-20T04:47:00.101Z,18.25
2023-01-20T04:49:26.765Z,22.15
2023-01-20T04:51:53.423Z,17.05
2023-01-20T04:54:20.168Z,19.85
2023-01-20T04:56:48.995Z,18.17
2023-01-20T04:59:15.642Z,21.42
2023-01-20T05:01:42.390Z,21.38
2023-01-20T05:04:09.107Z,22.65
2023-01-20T05:06:35.912Z,23.67
2023-01-20T05:09:02.609Z,21.17
2023-01-20T05:11:29.193Z,21.17
2023-01-20T05:13:55.804Z,19.95
2023-01-20T05:16:25.779Z,26.63
2023-01-20T05:18:52.378Z,21.05
2023-01-20T05:21:19.865Z,19.65
2023-01-20T05:23:46.496Z,21.77
2023-01-20T05:26:13.275Z,25.00
2023-01-20T05:28:40.019Z,22.25
2023-01-20T05:31:06.797Z,22.65
2023-01-20T05:33:33.571Z,23.10
2023-01-20T05:36:03.902Z,21.92
2023-01-20T05:38:30.658Z,21.90
2023-01-20T05:41:06.144Z,22.52
2023-01-20T05:43:32.978Z,21.92
2023-01-20T05:45:59.692Z,20.35
2023-01-20T05:48:27.651Z,28.58
2023-01-20T05:50:55.332Z,31.77
2023-01-20T05:53:22.306Z,31.52
2023-01-20T05:55:49.190Z,26.15
2023-01-20T05:58:15.777Z,26.23
2023-01-20T06:00:42.414Z,24.45
2023-01-20T06:03:09.069Z,30.25
2023-01-20T06:05:35.655Z,25.92
2023-01-20T06:08:03.299Z,29.52
2023-01-20T06:10:30.076Z,22.38
2023-01-20T06:12:57.516Z,23.38
2023-01-20T06:15:25.292Z,21.60
2023-01-20T06:17:52.826Z,21.77
2023-01-20T06:20:19.727Z,19.08
2023-01-20T06:22:47.792Z,18.92
2023-01-20T06:25:15.378Z,19.67
2023-01-20T06:27:42.158Z,19.88
2023-01-20T06:30:10.637Z,19.35
2023-01-20T06:32:37.659Z,24.35
2023-01-20T06:35:04.489Z,19.15
2023-01-20T06:37:31.063Z,17.35
2023-01-20T06:39:57.714Z,20.75
2023-01-20T06:42:24.395Z,18.15
2023-01-20T06:44:51.276Z,17.58
2023-01-20T06:47:17.842Z,22.83
2023-01-20T06:49:50.565Z,16.13
2023-01-20T06:52:17.229Z,19.65
2023-01-20T06:54:44.015Z,23.15
2023-01-20T06:57:10.737Z,19.25
2023-01-20T06:59:37.423Z,19.85
2023-01-20T07:02:04.135Z,23.27
2023-01-20T07:04:32.023Z,20.80
2023-01-20T07:07:00.563Z,22.77
2023-01-20T07:09:27.166Z,22.13
2023-01-20T07:11:54.641Z,22.92
2023-01-20T07:14:21.593Z,20.38
2023-01-20T07:16:48.286Z,24.63
2023-01-20T07:19:14.952Z,21.00
2023-01-20T07:21:41.540Z,22.50
2023-01-20T07:24:09.729Z,18.92
2023-01-20T07:26:36.470Z,19.02
2023-01-20T07:29:07.283Z,21.38
2023-01-20T07:31:35.298Z,20.67
2023-01-20T07:34:02.110Z,20.65
2023-01-20T07:36:30.399Z,24.52
2023-01-20T07:39:02.125Z,20.80
2023-01-20T07:41:30.826Z,21.75
2023-01-20T07:43:59.893Z,21.23
2023-01-20T07:46:29.031Z,23.02
2023-01-20T07:48:56.643Z,21.42
2023-01-20T07:51:24.141Z,20.27
2023-01-20T07:53:55.992Z,20.48
2023-01-20T07:56:27.604Z,20.90
2023-01-20T07:58:55.342Z,20.92
2023-01-20T08:01:24.047Z,32.33
2023-01-20T08:03:51.610Z,22.45
2023-01-20T08:06:21.761Z,24.63
2023-01-20T08:08:48.743Z,22.85
2023-01-20T08:11:17.183Z,20.85
2023-01-20T08:13:44.323Z,20.50
2023-01-20T08:16:13.841Z,19.50
2023-01-20T08:18:40.916Z,19.48
2023-01-20T08:21:15.156Z,25.35
2023-01-20T08:23:41.727Z,32.42
2023-01-20T08:26:08.416Z,24.10
2023-01-20T08:28:36.330Z,42.53
2023-01-20T08:31:11.825Z,31.00
2023-01-20T08:33:42.546Z,35.05
2023-01-20T08:36:22.065Z,36.13
2023-01-20T08:38:49.402Z,31.88
2023-01-20T08:41:22.452Z,30.42
2023-01-20T08:43:50.047Z,30.90
2023-01-20T08:46:19.911Z,28.27
2023-01-20T08:48:47.643Z,37.05
2023-01-20T08:51:21.005Z,33.60
2023-01-20T08:53:48.242Z,32.75
2023-01-20T08:56:15.237Z,32.55
2023-01-20T08:58:42.072Z,29.92
2023-01-20T09:01:11.197Z,27.83
2023-01-20T09:03:38.358Z,27.80
2023-01-20T09:06:06.511Z,34.85
2023-01-20T09:08:34.109Z,41.72
2023-01-20T09:11:09.999Z,37.42
2023-01-20T09:13:37.160Z,40.58
2023-01-20T09:16:04.272Z,36.58
2023-01-20T09:18:32.353Z,36.95
2023-01-20T09:20:59.568Z,36.20
2023-01-20T09:23:26.906Z,35.75
2023-01-20T09:25:53.607Z,34.10
2023-01-20T09:28:20.275Z,28.90
2023-01-20T09:30:46.934Z,27.42
2023-01-20T09:33:13.757Z,31.83
2023-01-20T09:35:40.578Z,30.38
2023-01-20T09:38:25.860Z,30.42
2023-01-20T09:41:16.837Z,27.38
2023-01-20T09:44:24.886Z,28.35
2023-01-20T09:47:19.380Z,28.38
2023-01-20T09:50:14.131Z,25.45
2023-01-20T09:53:00.395Z,28.20
2023-01-20T09:55:58.118Z,25.80
2023-01-20T09:58:57.680Z,26.13
2023-01-20T10:01:39.405Z,22.85
2023-01-20T10:04:30.909Z,22.50
2023-01-20T10:07:08.317Z,23.80
2023-01-20T10:09:45.506Z,21.10
2023-01-20T10:12:27.662Z,19.80
2023-01-20T10:15:14.272Z,21.48
2023-01-20T10:17:59.753Z,21.90
2023-01-20T10:20:42.155Z,21.33
2023-01-20T10:23:17.968Z,18.65
2023-01-20T10:25:49.994Z,25.70
2023-01-20T10:28:24.738Z,22.83
2023-01-20T10:30:51.446Z,20.60
2023-01-20T10:33:29.908Z,22.23
2023-01-20T10:35:59.659Z,19.23
2023-01-20T10:38:38.208Z,19.83
2023-01-20T10:41:21.386Z,16.60
2023-01-20T10:43:48.375Z,17.80
2023-01-20T10:46:36.796Z,18.03
2023-01-20T10:49:34.221Z,16.27
2023-01-20T10:52:13.012Z,19.40
2023-01-20T10:54:54.443Z,19.00
2023-01-20T10:57:21.537Z,22.43
2023-01-20T10:59:59.232Z,16.10
2023-01-20T11:02:29.137Z,16.93
2023-01-20T11:05:17.113Z,20.43
2023-01-20T11:07:45.672Z,15.00
2023-01-20T11:10:18.880Z,17.17
2023-01-20T11:12:49.877Z,17.37
2023-01-20T11:15:23.750Z,16.60
2023-01-20T11:18:14.402Z,15.10
2023-01-20T11:20:47.158Z,17.13
2023-01-20T11:23:26.770Z,15.60
2023-01-20T11:25:57.734Z,15.60
2023-01-20T11:28:25.175Z,16.00
2023-01-20T11:30:54.436Z,14.87
2023-01-20T11:33:24.127Z,14.90
2023-01-20T11:36:02.588Z,15.67
2023-01-20T11:38:32.931Z,14.60
2023-01-20T11:40:59.559Z,15.50
2023-01-20T11:43:37.971Z,16.67
2023-01-20T11:46:26.998Z,15.60
2023-01-20T11:49:14.184Z,16.17
2023-01-20T11:51:46.724Z,19.50
2023-01-20T11:54:20.071Z,19.83
2023-01-20T11:56:51.720Z,16.58
2023-01-20T11:59:28.417Z,16.85
2023-01-20T12:02:01.538Z,21.15
2023-01-20T12:05:03.246Z,17.70
2023-01-20T12:07:41.308Z,18.20
2023-01-20T12:10:30.186Z,15.63
2023-01-20T12:13:27.255Z,16.63
2023-01-20T12:15:56.454Z,21.15
2023-01-20T12:18:26.092Z,17.38
2023-01-20T12:21:08.077Z,15.77
2023-01-20T12:23:51.785Z,14.98
2023-01-20T12:26:20.957Z,18.65
2023-01-20T12:29:00.995Z,18.63
2023-01-20T12:31:27.802Z,13.98
2023-01-20T12:34:02.387Z,19.65
2023-01-20T12:36:47.163Z,15.93
2023-01-20T12:39:40.909Z,14.75
2023-01-20T12:42:10.576Z,16.58
2023-01-20T12:44:53.916Z,16.77
2023-01-20T12:47:41.565Z,13.80
2023-01-20T12:50:17.809Z,13.77
2023-01-20T12:53:03.951Z,15.30
2023-01-20T12:55:41.536Z,16.85
2023-01-20T12:58:54.051Z,14.80
2023-01-20T13:01:55.975Z,17.75
2023-01-20T13:04:36.752Z,17.25
2023-01-20T13:07:33.264Z,17.48
2023-01-20T13:10:21.716Z,16.52
2023-01-20T13:13:12.091Z,17.30
2023-01-20T13:16:22.057Z,14.80
2023-01-20T13:19:15.369Z,18.15
2023-01-20T13:21:42.580Z,20.15
2023-01-20T13:24:20.352Z,17.98
2023-01-20T13:26:48.878Z,18.85
2023-01-20T13:29:34.211Z,14.80
2023-01-20T13:32:00.989Z,18.88
2023-01-20T13:34:27.621Z,16.10
2023-01-20T13:37:03.656Z,17.00
2023-01-20T13:39:41.310Z,15.23
2023-01-20T13:42:41.050Z,17.92
2023-01-20T13:45:14.314Z,17.45
2023-01-20T13:47:53.427Z,15.68
2023-01-20T13:50:30.518Z,14.98
2023-01-20T13:53:00.094Z,16.38
2023-01-20T13:55:52.378Z,18.05
2023-01-20T13:58:19.768Z,15.43
2023-01-20T14:00:49.960Z,19.85
2023-01-20T14:03:19.327Z,18.95
2023-01-20T14:06:12.216Z,17.52
2023-01-20T14:08:41.789Z,14.05
2023-01-20T14:11:25.447Z,17.95
2023-01-20T14:13:54.687Z,17.95
2023-01-20T14:16:34.496Z,27.17
2023-01-20T14:19:34.547Z,15.70
2023-01-20T14:22:22.587Z,18.25
2023-01-20T14:24:52.697Z,15.95
2023-01-20T14:27:41.798Z,20.40
2023-01-20T14:30:16.779Z,14.50
2023-01-20T14:32:43.629Z,19.23
2023-01-20T14:35:28.938Z,17.00
2023-01-20T14:37:55.702Z,18.92
2023-01-20T14:40:29.649Z,16.85
2023-01-20T14:43:06.106Z,17.05
2023-01-20T14:45:34.133Z,17.10
2023-01-20T14:48:02.725Z,14.93
2023-01-20T14:50:30.047Z,16.83
2023-01-20T14:52:57.858Z,16.98
2023-01-20T14:55:33.101Z,17.42
2023-01-20T14:58:00.587Z,18.65
2023-01-20T15:00:33.888Z,20.98
2023-01-20T15:03:20.734Z,17.55
2023-01-20T15:05:58.263Z,18.92
2023-01-20T15:08:56.725Z,16.05
2023-01-20T15:11:28.305Z,19.50
2023-01-20T15:14:09.458Z,18.65
2023-01-20T15:16:36.035Z,18.20
2023-01-20T15:19:31.781Z,17.83
2023-01-20T15:22:20.241Z,18.52
2023-01-20T15:24:54.740Z,17.08
2023-01-20T15:27:31.590Z,18.60
2023-01-20T15:30:19.328Z,18.30
2023-01-20T15:32:50.775Z,20.65
2023-01-20T15:35:22.987Z,19.05
2023-01-20T15:37:50.119Z,18.30
2023-01-20T15:40:20.004Z,18.50
2023-01-20T15:42:47.984Z,19.05
2023-01-20T15:45:15.793Z,17.10
2023-01-20T15:47:44.155Z,20.85
2023-01-20T15:50:20.772Z,18.40
2023-01-20T15:52:47.584Z,18.23
2023-01-20T15:55:19.159Z,20.25
2023-01-20T15:57:49.399Z,19.88
2023-01-20T16:00:23.838Z,19.92
2023-01-20T16:02:50.781Z,24.17
2023-01-20T16:05:18.003Z,17.92
2023-01-20T16:07:47.033Z,19.52
2023-01-20T16:10:16.237Z,24.60
2023-01-20T16:12:43.847Z,18.05
2023-01-20T16:15:15.392Z,18.80
2023-01-20T16:17:42.280Z,20.85
2023-01-20T16:20:22.974Z,19.52
2023-01-20T16:22:49.636Z,20.13
2023-01-20T16:25:23.653Z,21.08
2023-01-20T16:27:50.262Z,22.98
2023-01-20T16:30:19.949Z,23.60
2023-01-20T16:32:46.945Z,22.65
2023-01-20T16:35:15.220Z,20.90
2023-01-20T16:37:42.576Z,24.58
2023-01-20T16:40:21.075Z,21.30
2023-01-20T16:42:48.006Z,22.98
2023-01-20T16:45:27.541Z,24.88
2023-01-20T16:47:54.983Z,20.25
2023-01-20T16:50:22.081Z,17.75
2023-01-20T16:52:48.748Z,20.70
2023-01-20T16:55:15.423Z,17.70
2023-01-20T16:57:42.463Z,20.58
2023-01-20T17:00:09.985Z,19.23
2023-01-20T17:02:38.875Z,20.45
2023-01-20T17:05:07.642Z,18.67
2023-01-20T17:07:35.003Z,18.55
2023-01-20T17:10:01.862Z,20.05
2023-01-20T17:12:28.544Z,23.70
2023-01-20T17:14:55.152Z,25.70
2023-01-20T17:17:22.856Z,20.15
2023-01-20T17:19:49.472Z,20.00
2023-01-20T17:22:17.785Z,18.88
2023-01-20T17:24:44.544Z,21.35
2023-01-20T17:27:11.222Z,22.02
2023-01-20T17:29:38.290Z,21.67
2023-01-20T17:32:05.005Z,21.17
2023-01-20T17:34:31.699Z,19.35
2023-01-20T17:36:58.279Z,19.35
2023-01-20T17:39:27.035Z,18.42
2023-01-20T17:41:53.608Z,16.80
2023-01-20T17:44:20.300Z,18.63
2023-01-20T17:46:49.877Z,20.15
2023-01-20T17:49:16.855Z,23.70
2023-01-20T17:51:44.206Z,19.95
2023-01-20T17:54:10.853Z,23.38
2023-01-20T17:56:37.489Z,20.30
2023-01-20T17:59:04.125Z,20.90
2023-01-20T18:01:34.879Z,23.85
2023-01-20T18:04:04.212Z,19.15
2023-01-20T18:06:35.553Z,22.35
2023-01-20T18:09:02.335Z,20.23
2023-01-20T18:11:35.303Z,21.60
2023-01-20T18:14:04.001Z,22.20
2023-01-20T18:16:33.246Z,25.60
2023-01-20T18:18:59.920Z,29.42
2023-01-20T18:21:30.811Z,23.80
2023-01-20T18:23:58.595Z,19.33
2023-01-20T18:26:29.343Z,26.42
2023-01-20T18:28:57.560Z,24.10
2023-01-20T18:31:25.305Z,20.38
2023-01-20T18:34:03.745Z,17.95
2023-01-20T18:36:33.221Z,17.88
2023-01-20T18:39:04.179Z,26.02
2023-01-20T18:41:32.528Z,20.13
2023-01-20T18:43:59.824Z,19.38
2023-01-20T18:46:27.355Z,25.73
2023-01-20T18:48:56.238Z,21.17
2023-01-20T18:51:26.583Z,21.17
2023-01-20T18:54:09.641Z,21.48
2023-01-20T18:56:36.665Z,21.50
2023-01-20T18:59:05.194Z,24.05
2023-01-20T19:01:34.967Z,28.23
2023-01-20T19:04:03.346Z,25.85
2023-01-20T19:06:34.346Z,21.42
2023-01-20T19:09:01.534Z,24.88
2023-01-20T19:11:35.664Z,21.90
2023-01-20T19:14:03.708Z,21.20
2023-01-20T19:16:32.560Z,24.45
2023-01-20T19:19:03.235Z,18.92
2023-01-20T19:21:32.443Z,25.98
2023-01-20T19:24:01.575Z,23.48
2023-01-20T19:26:28.799Z,22.27
2023-01-20T19:29:02.852Z,20.48
2023-01-20T19:31:31.482Z,24.30
2023-01-20T19:34:12.819Z,20.52
2023-01-20T19:36:39.575Z,21.50
2023-01-20T19:39:06.531Z,24.33
2023-01-20T19:41:34.359Z,19.17
2023-01-20T19:44:03.201Z,25.45
2023-01-20T19:46:32.337Z,22.55
2023-01-20T19:48:59.895Z,19.75
2023-01-20T19:51:32.195Z,19.60
2023-01-20T19:54:04.214Z,25.88
2023-01-20T19:56:37.031Z,20.33
2023-01-20T19:59:05.875Z,22.58
2023-01-20T20:01:34.620Z,20.98
2023-01-20T20:04:09.644Z,19.67
2023-01-20T20:06:48.445Z,21.20
2023-01-20T20:09:20.342Z,16.50
2023-01-20T20:11:56.715Z,17.25
2023-01-20T20:14:23.805Z,15.82
2023-01-20T20:16:57.766Z,16.48
2023-01-20T20:19:24.554Z,18.08
2023-01-20T20:21:52.126Z,17.92
2023-01-20T20:24:18.828Z,18.30
2023-01-20T20:26:46.955Z,20.15
2023-01-20T20:29:15.223Z,22.10
2023-01-20T20:31:41.945Z,23.85
2023-01-20T20:34:16.745Z,18.73
2023-01-20T20:36:43.767Z,22.65
2023-01-20T20:39:19.582Z,24.70
2023-01-20T20:41:47.101Z,21.55
2023-01-20T20:44:13.876Z,27.52
2023-01-20T20:46:40.920Z,26.48
2023-01-20T20:49:15.718Z,24.63
2023-01-20T20:51:42.506Z,25.38
2023-01-20T20:54:09.459Z,29.65
2023-01-20T20:56:39.260Z,25.65
2023-01-20T20:59:05.957Z,31.77
2023-01-20T21:01:34.258Z,25.63
2023-01-20T21:04:03.034Z,31.13
2023-01-20T21:06:30.479Z,32.65
2023-01-20T21:08:58.533Z,28.73
2023-01-20T21:11:25.478Z,31.67
2023-01-20T21:13:53.521Z,35.53
2023-01-20T21:16:29.460Z,30.67
2023-01-20T21:19:01.594Z,43.00
2023-01-20T21:21:29.163Z,34.13
2023-01-20T21:23:57.504Z,33.60
2023-01-20T21:26:27.720Z,30.95
2023-01-20T21:28:56.427Z,25.05
2023-01-20T21:31:26.519Z,39.28
2023-01-20T21:33:56.846Z,40.83
2023-01-20T21:36:24.227Z,47.60
2023-01-20T21:38:51.315Z,75.57
2023-01-20T21:41:18.852Z,39.10
2023-01-20T21:44:05.569Z,44.05
2023-01-20T21:46:36.489Z,99.38
2023-01-20T21:49:23.928Z,53.63
2023-01-20T21:52:09.361Z,101.57
2023-01-20T21:54:36.322Z,50.75
2023-01-20T21:57:03.040Z,44.50
2023-01-20T21:59:30.194Z,41.50
2023-01-20T22:01:56.969Z,38.67
2023-01-20T22:04:26.732Z,57.22
2023-01-20T22:06:53.505Z,108.90
2023-01-20T22:09:20.095Z,72.53
2023-01-20T22:11:47.098Z,78.10
2023-01-20T22:14:13.702Z,45.08
2023-01-20T22:16:40.583Z,88.68
2023-01-20T22:19:22.364Z,40.58
2023-01-20T22:21:48.988Z,38.85
2023-01-20T22:24:15.612Z,50.08
2023-01-20T22:26:42.296Z,65.35
2023-01-20T22:29:09.377Z,60.88
2023-01-20T22:31:45.857Z,40.72
2023-01-20T22:34:12.804Z,32.38
2023-01-20T22:36:39.593Z,85.75
2023-01-20T22:39:06.783Z,47.10
2023-01-20T22:41:33.580Z,50.20
2023-01-20T22:44:00.175Z,51.63
2023-01-20T22:46:28.815Z,134.40
2023-01-20T22:48:59.417Z,97.53
2023-01-20T22:51:44.536Z,55.35
2023-01-20T22:54:11.163Z,48.42
2023-01-20T22:56:38.968Z,30.48
2023-01-20T22:59:06.301Z,27.90
2023-01-20T23:01:35.298Z,34.83
2023-01-20T23:04:04.730Z,29.98
2023-01-20T23:06:33.997Z,28.05
2023-01-20T23:09:02.636Z,26.50
2023-01-20T23:11:36.351Z,28.02
2023-01-20T23:14:03.341Z,30.13
2023-01-20T23:16:30.043Z,32.88
2023-01-20T23:18:56.652Z,28.20
2023-01-20T23:21:24.328Z,44.70
2023-01-20T23:23:54.337Z,35.38
2023-01-20T23:26:23.711Z,35.85
2023-01-20T23:28:50.545Z,32.05
2023-01-20T23:31:24.827Z,30.48
2023-01-20T23:33:53.592Z,40.22
2023-01-20T23:36:23.292Z,33.08
2023-01-20T23:38:50.493Z,30.63
2023-01-20T23:41:34.412Z,30.20
2023-01-20T23:44:02.625Z,28.48
2023-01-20T23:46:29.385Z,30.95
2023-01-20T23:48:56.060Z,29.45
2023-01-20T23:51:22.768Z,23.30
2023-01-20T23:53:49.669Z,25.75
2023-01-20T23:56:18.971Z,23.95
2023-01-20T23:58:46.187Z,23.70
